sensor_id;sensor_type;location;lat;lon;timestamp;temperature;humidity
32865;DHT22;19219;44.500;11.188;2022-11-14T00:00:54;11.70;99.90
32865;DHT22;19219;44.500;11.188;2022-11-14T00:03:19;11.70;99.90
32865;DHT22;19219;44.500;11.188;2022-11-14T00:05:45;11.70;99.90
32865;DHT22;19219;44.500;11.188;2022-11-14T00:08:20;11.60;99.90
32865;DHT22;19219;44.500;11.188;2022-11-14T00:10:47;11.60;99.90
32865;DHT22;19219;44.500;11.188;2022-11-14T00:13:14;11.60;99.90
32865;DHT22;19219;44.500;11.188;2022-11-14T00:15:40;11.60;99.90
32865;DHT22;19219;44.500;11.188;2022-11-14T00:18:06;11.50;99.90
32865;DHT22;19219;44.500;11.188;2022-11-14T00:20:32;11.50;99.90
32865;DHT22;19219;44.500;11.188;2022-11-14T00:22:58;11.50;99.90
32865;DHT22;19219;44.500;11.188;2022-11-14T00:25:24;11.50;99.90
32865;DHT22;19219;44.500;11.188;2022-11-14T00:27:49;11.60;99.90
32865;DHT22;19219;44.500;11.188;2022-11-14T00:30:15;11.60;99.90
32865;DHT22;19219;44.500;11.188;2022-11-14T00:32:40;11.60;99.90
32865;DHT22;19219;44.500;11.188;2022-11-14T00:35:07;11.60;99.90
32865;DHT22;19219;44.500;11.188;2022-11-14T00:37:33;11.60;99.90
32865;DHT22;19219;44.500;11.188;2022-11-14T00:39:59;11.60;99.90
32865;DHT22;19219;44.500;11.188;2022-11-14T00:42:25;11.60;99.90
32865;DHT22;19219;44.500;11.188;2022-11-14T00:44:50;11.70;99.90
32865;DHT22;19219;44.500;11.188;2022-11-14T00:47:16;11.70;99.90
32865;DHT22;19219;44.500;11.188;2022-11-14T00:49:42;11.70;99.90
32865;DHT22;19219;44.500;11.188;2022-11-14T00:52:07;11.70;99.90
32865;DHT22;19219;44.500;11.188;2022-11-14T00:54:33;11.70;99.90
32865;DHT22;19219;44.500;11.188;2022-11-14T00:56:59;11.70;99.90
32865;DHT22;19219;44.500;11.188;2022-11-14T00:59:24;11.60;99.90
32865;DHT22;19219;44.500;11.188;2022-11-14T01:01:50;11.60;99.90
32865;DHT22;19219;44.500;11.188;2022-11-14T01:04:15;11.60;99.90
32865;DHT22;19219;44.500;11.188;2022-11-14T01:06:41;11.50;99.90
32865;DHT22;19219;44.500;11.188;2022-11-14T01:09:07;11.50;99.90
32865;DHT22;19219;44.500;11.188;2022-11-14T01:11:33;11.60;99.90
32865;DHT22;19219;44.500;11.188;2022-11-14T01:13:58;11.60;99.90
32865;DHT22;19219;44.500;11.188;2022-11-14T01:16:24;11.60;99.90
32865;DHT22;19219;44.500;11.188;2022-11-14T01:18:50;11.70;99.90
32865;DHT22;19219;44.500;11.188;2022-11-14T01:21:15;11.60;99.90
32865;DHT22;19219;44.500;11.188;2022-11-14T01:23:41;11.60;99.90
32865;DHT22;19219;44.500;11.188;2022-11-14T01:26:11;11.60;99.90
32865;DHT22;19219;44.500;11.188;2022-11-14T01:28:38;11.70;99.90
32865;DHT22;19219;44.500;11.188;2022-11-14T01:31:15;11.70;99.90
32865;DHT22;19219;44.500;11.188;2022-11-14T01:33:40;11.70;99.90
32865;DHT22;19219;44.500;11.188;2022-11-14T01:36:07;11.70;99.90
32865;DHT22;19219;44.500;11.188;2022-11-14T01:38:33;11.70;99.90
32865;DHT22;19219;44.500;11.188;2022-11-14T01:40:59;11.70;99.90
32865;DHT22;19219;44.500;11.188;2022-11-14T01:54:02;11.60;99.90
32865;DHT22;19219;44.500;11.188;2022-11-14T01:56:43;11.60;99.90
32865;DHT22;19219;44.500;11.188;2022-11-14T01:59:13;11.60;99.90
32865;DHT22;19219;44.500;11.188;2022-11-14T02:01:45;11.60;99.90
32865;DHT22;19219;44.500;11.188;2022-11-14T02:04:14;11.50;99.90
32865;DHT22;19219;44.500;11.188;2022-11-14T02:06:42;11.60;99.90
32865;DHT22;19219;44.500;11.188;2022-11-14T02:09:08;11.60;99.90
32865;DHT22;19219;44.500;11.188;2022-11-14T02:11:43;11.60;99.90
32865;DHT22;19219;44.500;11.188;2022-11-14T02:14:10;11.60;99.90
32865;DHT22;19219;44.500;11.188;2022-11-14T02:16:38;11.60;99.90
32865;DHT22;19219;44.500;11.188;2022-11-14T02:19:04;11.60;99.90
32865;DHT22;19219;44.500;11.188;2022-11-14T02:21:30;11.60;99.90
32865;DHT22;19219;44.500;11.188;2022-11-14T02:23:56;11.60;99.90
32865;DHT22;19219;44.500;11.188;2022-11-14T02:26:22;11.60;99.90
32865;DHT22;19219;44.500;11.188;2022-11-14T02:28:48;11.50;99.90
32865;DHT22;19219;44.500;11.188;2022-11-14T02:31:14;11.60;99.90
32865;DHT22;19219;44.500;11.188;2022-11-14T02:33:40;11.60;99.90
32865;DHT22;19219;44.500;11.188;2022-11-14T02:36:07;11.60;99.90
32865;DHT22;19219;44.500;11.188;2022-11-14T02:38:33;11.60;99.90
32865;DHT22;19219;44.500;11.188;2022-11-14T02:41:00;11.60;99.90
32865;DHT22;19219;44.500;11.188;2022-11-14T02:43:25;11.60;99.90
32865;DHT22;19219;44.500;11.188;2022-11-14T02:45:51;11.70;99.90
32865;DHT22;19219;44.500;11.188;2022-11-14T02:48:17;11.70;99.90
32865;DHT22;19219;44.500;11.188;2022-11-14T02:50:42;11.70;99.90
32865;DHT22;19219;44.500;11.188;2022-11-14T02:53:08;11.70;99.90
32865;DHT22;19219;44.500;11.188;2022-11-14T02:55:34;11.60;99.90
32865;DHT22;19219;44.500;11.188;2022-11-14T02:57:59;11.60;99.90
32865;DHT22;19219;44.500;11.188;2022-11-14T03:00:25;11.60;99.90
32865;DHT22;19219;44.500;11.188;2022-11-14T03:02:52;11.70;99.90
32865;DHT22;19219;44.500;11.188;2022-11-14T03:05:18;11.70;99.90
32865;DHT22;19219;44.500;11.188;2022-11-14T03:07:44;11.70;99.90
32865;DHT22;19219;44.500;11.188;2022-11-14T03:10:10;11.50;99.90
32865;DHT22;19219;44.500;11.188;2022-11-14T03:12:38;11.60;99.90
32865;DHT22;19219;44.500;11.188;2022-11-14T03:15:05;11.70;99.90
32865;DHT22;19219;44.500;11.188;2022-11-14T03:17:32;11.60;99.90
32865;DHT22;19219;44.500;11.188;2022-11-14T03:19:58;11.70;99.90
32865;DHT22;19219;44.500;11.188;2022-11-14T03:22:23;11.60;99.90
32865;DHT22;19219;44.500;11.188;2022-11-14T03:24:49;11.60;99.90
32865;DHT22;19219;44.500;11.188;2022-11-14T03:27:15;11.60;99.90
32865;DHT22;19219;44.500;11.188;2022-11-14T03:29:40;11.50;99.90
32865;DHT22;19219;44.500;11.188;2022-11-14T03:32:06;11.50;99.90
32865;DHT22;19219;44.500;11.188;2022-11-14T03:34:32;11.50;99.90
32865;DHT22;19219;44.500;11.188;2022-11-14T03:36:58;11.60;99.90
32865;DHT22;19219;44.500;11.188;2022-11-14T03:39:25;11.60;99.90
32865;DHT22;19219;44.500;11.188;2022-11-14T03:41:50;11.50;99.90
32865;DHT22;19219;44.500;11.188;2022-11-14T03:44:16;11.50;99.90
32865;DHT22;19219;44.500;11.188;2022-11-14T03:46:42;11.50;99.90
32865;DHT22;19219;44.500;11.188;2022-11-14T03:49:07;11.50;99.90
32865;DHT22;19219;44.500;11.188;2022-11-14T03:51:34;11.50;99.90
32865;DHT22;19219;44.500;11.188;2022-11-14T03:53:59;11.50;99.90
32865;DHT22;19219;44.500;11.188;2022-11-14T03:56:25;11.50;99.90
32865;DHT22;19219;44.500;11.188;2022-11-14T03:58:51;11.50;99.90
32865;DHT22;19219;44.500;11.188;2022-11-14T04:01:16;11.50;99.90
32865;DHT22;19219;44.500;11.188;2022-11-14T04:03:42;11.60;99.90
32865;DHT22;19219;44.500;11.188;2022-11-14T04:06:08;11.50;99.90
32865;DHT22;19219;44.500;11.188;2022-11-14T04:08:33;11.50;99.90
32865;DHT22;19219;44.500;11.188;2022-11-14T04:10:59;11.50;99.90
32865;DHT22;19219;44.500;11.188;2022-11-14T04:13:25;11.50;99.90
32865;DHT22;19219;44.500;11.188;2022-11-14T04:15:57;11.50;99.90
32865;DHT22;19219;44.500;11.188;2022-11-14T04:18:24;11.50;99.90
32865;DHT22;19219;44.500;11.188;2022-11-14T04:20:50;11.50;99.90
32865;DHT22;19219;44.500;11.188;2022-11-14T04:23:16;11.50;99.90
32865;DHT22;19219;44.500;11.188;2022-11-14T04:25:43;11.50;99.90
32865;DHT22;19219;44.500;11.188;2022-11-14T04:28:09;11.40;99.90
32865;DHT22;19219;44.500;11.188;2022-11-14T04:30:34;11.50;99.90
32865;DHT22;19219;44.500;11.188;2022-11-14T04:33:00;11.50;99.90
32865;DHT22;19219;44.500;11.188;2022-11-14T04:35:25;11.50;99.90
32865;DHT22;19219;44.500;11.188;2022-11-14T04:37:51;11.50;99.90
32865;DHT22;19219;44.500;11.188;2022-11-14T04:40:17;11.40;99.90
32865;DHT22;19219;44.500;11.188;2022-11-14T04:42:42;11.40;99.90
32865;DHT22;19219;44.500;11.188;2022-11-14T04:45:09;11.40;99.90
32865;DHT22;19219;44.500;11.188;2022-11-14T04:47:35;11.50;99.90
32865;DHT22;19219;44.500;11.188;2022-11-14T04:50:00;11.50;99.90
32865;DHT22;19219;44.500;11.188;2022-11-14T04:52:26;11.40;99.90
32865;DHT22;19219;44.500;11.188;2022-11-14T04:54:52;11.40;99.90
32865;DHT22;19219;44.500;11.188;2022-11-14T04:57:17;11.40;99.90
32865;DHT22;19219;44.500;11.188;2022-11-14T04:59:43;11.40;99.90
32865;DHT22;19219;44.500;11.188;2022-11-14T05:02:09;11.20;99.90
32865;DHT22;19219;44.500;11.188;2022-11-14T05:04:34;11.30;99.90
32865;DHT22;19219;44.500;11.188;2022-11-14T05:07:00;11.20;99.90
32865;DHT22;19219;44.500;11.188;2022-11-14T05:09:26;11.20;99.90
32865;DHT22;19219;44.500;11.188;2022-11-14T05:11:51;11.00;99.90
32865;DHT22;19219;44.500;11.188;2022-11-14T05:14:17;11.10;99.90
32865;DHT22;19219;44.500;11.188;2022-11-14T05:16:43;11.10;99.90
32865;DHT22;19219;44.500;11.188;2022-11-14T05:19:09;11.00;99.90
32865;DHT22;19219;44.500;11.188;2022-11-14T05:21:34;11.10;99.90
32865;DHT22;19219;44.500;11.188;2022-11-14T05:24:00;11.10;99.90
32865;DHT22;19219;44.500;11.188;2022-11-14T05:26:25;11.10;99.90
32865;DHT22;19219;44.500;11.188;2022-11-14T05:28:51;11.10;99.90
32865;DHT22;19219;44.500;11.188;2022-11-14T05:31:17;11.10;99.90
32865;DHT22;19219;44.500;11.188;2022-11-14T05:33:44;11.20;99.90
32865;DHT22;19219;44.500;11.188;2022-11-14T05:36:14;11.20;99.90
32865;DHT22;19219;44.500;11.188;2022-11-14T05:38:40;11.20;99.90
32865;DHT22;19219;44.500;11.188;2022-11-14T05:41:10;11.20;99.90
32865;DHT22;19219;44.500;11.188;2022-11-14T05:43:36;11.20;99.90
32865;DHT22;19219;44.500;11.188;2022-11-14T05:46:04;11.30;99.90
32865;DHT22;19219;44.500;11.188;2022-11-14T05:48:30;11.30;99.90
32865;DHT22;19219;44.500;11.188;2022-11-14T05:51:00;11.30;99.90
32865;DHT22;19219;44.500;11.188;2022-11-14T05:53:27;11.20;99.90
32865;DHT22;19219;44.500;11.188;2022-11-14T05:55:54;11.20;99.90
32865;DHT22;19219;44.500;11.188;2022-11-14T05:58:20;11.20;99.90
32865;DHT22;19219;44.500;11.188;2022-11-14T06:00:46;11.20;99.90
32865;DHT22;19219;44.500;11.188;2022-11-14T06:03:12;11.20;99.90
32865;DHT22;19219;44.500;11.188;2022-11-14T06:05:39;11.20;99.90
32865;DHT22;19219;44.500;11.188;2022-11-14T06:08:05;11.20;99.90
32865;DHT22;19219;44.500;11.188;2022-11-14T06:10:33;11.20;99.90
32865;DHT22;19219;44.500;11.188;2022-11-14T06:12:59;11.20;99.90
32865;DHT22;19219;44.500;11.188;2022-11-14T06:15:25;11.20;99.90
32865;DHT22;19219;44.500;11.188;2022-11-14T06:17:53;11.30;99.90
32865;DHT22;19219;44.500;11.188;2022-11-14T06:20:20;11.30;99.90
32865;DHT22;19219;44.500;11.188;2022-11-14T06:22:46;11.30;99.90
32865;DHT22;19219;44.500;11.188;2022-11-14T06:25:11;11.20;99.90
32865;DHT22;19219;44.500;11.188;2022-11-14T06:27:37;11.20;99.90
32865;DHT22;19219;44.500;11.188;2022-11-14T06:30:03;11.10;99.90
32865;DHT22;19219;44.500;11.188;2022-11-14T06:32:29;11.20;99.90
32865;DHT22;19219;44.500;11.188;2022-11-14T06:34:54;11.20;99.90
32865;DHT22;19219;44.500;11.188;2022-11-14T06:37:20;11.20;99.90
32865;DHT22;19219;44.500;11.188;2022-11-14T06:39:46;11.20;99.90
32865;DHT22;19219;44.500;11.188;2022-11-14T06:42:11;11.20;99.90
32865;DHT22;19219;44.500;11.188;2022-11-14T06:44:39;11.30;99.90
32865;DHT22;19219;44.500;11.188;2022-11-14T06:47:05;11.30;99.90
32865;DHT22;19219;44.500;11.188;2022-11-14T06:49:31;11.40;99.90
32865;DHT22;19219;44.500;11.188;2022-11-14T06:51:56;11.40;99.90
32865;DHT22;19219;44.500;11.188;2022-11-14T06:54:22;11.50;99.90
32865;DHT22;19219;44.500;11.188;2022-11-14T06:56:47;11.50;99.90
32865;DHT22;19219;44.500;11.188;2022-11-14T06:59:13;11.50;99.90
32865;DHT22;19219;44.500;11.188;2022-11-14T07:01:39;11.60;99.90
32865;DHT22;19219;44.500;11.188;2022-11-14T07:04:05;11.60;99.90
32865;DHT22;19219;44.500;11.188;2022-11-14T07:06:30;11.60;99.90
32865;DHT22;19219;44.500;11.188;2022-11-14T07:08:56;11.60;99.90
32865;DHT22;19219;44.500;11.188;2022-11-14T07:11:24;11.60;99.90
32865;DHT22;19219;44.500;11.188;2022-11-14T07:13:54;11.70;99.90
32865;DHT22;19219;44.500;11.188;2022-11-14T07:16:23;11.70;99.90
32865;DHT22;19219;44.500;11.188;2022-11-14T07:18:50;11.70;99.90
32865;DHT22;19219;44.500;11.188;2022-11-14T07:21:15;11.80;99.90
32865;DHT22;19219;44.500;11.188;2022-11-14T07:23:41;11.80;99.90
32865;DHT22;19219;44.500;11.188;2022-11-14T07:26:09;11.80;99.90
32865;DHT22;19219;44.500;11.188;2022-11-14T07:28:38;11.80;99.90
32865;DHT22;19219;44.500;11.188;2022-11-14T07:31:05;11.80;99.90
32865;DHT22;19219;44.500;11.188;2022-11-14T07:33:31;11.70;99.90
32865;DHT22;19219;44.500;11.188;2022-11-14T07:35:57;11.80;99.90
32865;DHT22;19219;44.500;11.188;2022-11-14T07:38:23;11.80;99.90
32865;DHT22;19219;44.500;11.188;2022-11-14T07:40:53;11.70;99.90
32865;DHT22;19219;44.500;11.188;2022-11-14T07:43:19;11.70;99.90
32865;DHT22;19219;44.500;11.188;2022-11-14T07:45:45;11.70;99.90
32865;DHT22;19219;44.500;11.188;2022-11-14T07:48:10;11.70;99.90
32865;DHT22;19219;44.500;11.188;2022-11-14T07:50:36;11.80;99.90
32865;DHT22;19219;44.500;11.188;2022-11-14T07:53:01;11.90;99.90
32865;DHT22;19219;44.500;11.188;2022-11-14T07:55:27;12.00;99.90
32865;DHT22;19219;44.500;11.188;2022-11-14T07:57:54;12.00;99.90
32865;DHT22;19219;44.500;11.188;2022-11-14T08:00:20;12.00;99.90
32865;DHT22;19219;44.500;11.188;2022-11-14T08:02:46;12.00;99.90
32865;DHT22;19219;44.500;11.188;2022-11-14T08:05:12;12.00;99.90
32865;DHT22;19219;44.500;11.188;2022-11-14T08:07:37;12.00;99.90
32865;DHT22;19219;44.500;11.188;2022-11-14T08:10:03;12.00;99.90
32865;DHT22;19219;44.500;11.188;2022-11-14T08:12:29;12.00;99.90
32865;DHT22;19219;44.500;11.188;2022-11-14T08:14:55;11.90;99.90
32865;DHT22;19219;44.500;11.188;2022-11-14T08:17:22;11.90;99.90
32865;DHT22;19219;44.500;11.188;2022-11-14T08:19:48;11.90;99.90
32865;DHT22;19219;44.500;11.188;2022-11-14T08:22:13;11.90;99.90
32865;DHT22;19219;44.500;11.188;2022-11-14T08:24:39;12.00;99.90
32865;DHT22;19219;44.500;11.188;2022-11-14T08:27:05;11.90;99.90
32865;DHT22;19219;44.500;11.188;2022-11-14T08:29:30;11.90;99.90
32865;DHT22;19219;44.500;11.188;2022-11-14T08:31:56;11.90;99.90
32865;DHT22;19219;44.500;11.188;2022-11-14T08:34:22;11.80;99.90
32865;DHT22;19219;44.500;11.188;2022-11-14T08:36:48;11.80;99.90
32865;DHT22;19219;44.500;11.188;2022-11-14T08:39:13;11.70;99.90
32865;DHT22;19219;44.500;11.188;2022-11-14T08:41:39;11.70;99.90
32865;DHT22;19219;44.500;11.188;2022-11-14T08:44:05;11.80;99.90
32865;DHT22;19219;44.500;11.188;2022-11-14T08:46:31;11.90;99.90
32865;DHT22;19219;44.500;11.188;2022-11-14T08:48:56;11.80;99.90
32865;DHT22;19219;44.500;11.188;2022-11-14T08:51:22;11.80;99.90
32865;DHT22;19219;44.500;11.188;2022-11-14T08:53:47;11.90;99.90
32865;DHT22;19219;44.500;11.188;2022-11-14T08:56:13;12.00;99.90
32865;DHT22;19219;44.500;11.188;2022-11-14T08:58:39;12.00;99.90
32865;DHT22;19219;44.500;11.188;2022-11-14T09:01:05;12.10;99.90
32865;DHT22;19219;44.500;11.188;2022-11-14T09:03:32;12.30;99.90
32865;DHT22;19219;44.500;11.188;2022-11-14T09:05:58;12.20;99.90
32865;DHT22;19219;44.500;11.188;2022-11-14T09:08:24;12.40;99.90
32865;DHT22;19219;44.500;11.188;2022-11-14T09:10:50;12.60;99.90
32865;DHT22;19219;44.500;11.188;2022-11-14T09:13:16;13.00;99.90
32865;DHT22;19219;44.500;11.188;2022-11-14T09:15:42;13.80;99.90
32865;DHT22;19219;44.500;11.188;2022-11-14T09:18:08;15.00;99.90
32865;DHT22;19219;44.500;11.188;2022-11-14T09:20:34;15.20;99.90
32865;DHT22;19219;44.500;11.188;2022-11-14T09:23:01;16.00;99.90
32865;DHT22;19219;44.500;11.188;2022-11-14T09:25:28;17.50;99.90
32865;DHT22;19219;44.500;11.188;2022-11-14T09:27:54;19.20;99.90
32865;DHT22;19219;44.500;11.188;2022-11-14T09:30:20;20.50;99.90
32865;DHT22;19219;44.500;11.188;2022-11-14T09:32:47;21.50;99.90
32865;DHT22;19219;44.500;11.188;2022-11-14T09:35:13;22.20;99.90
32865;DHT22;19219;44.500;11.188;2022-11-14T09:37:39;23.30;99.90
32865;DHT22;19219;44.500;11.188;2022-11-14T09:40:05;23.00;99.90
32865;DHT22;19219;44.500;11.188;2022-11-14T09:45:09;23.60;99.90
32865;DHT22;19219;44.500;11.188;2022-11-14T09:47:49;23.60;99.90
32865;DHT22;19219;44.500;11.188;2022-11-14T09:50:28;23.40;99.90
32865;DHT22;19219;44.500;11.188;2022-11-14T09:52:56;22.20;99.90
32865;DHT22;19219;44.500;11.188;2022-11-14T09:57:52;19.90;99.90
32865;DHT22;19219;44.500;11.188;2022-11-14T10:00:21;18.80;99.90
32865;DHT22;19219;44.500;11.188;2022-11-14T10:06:02;17.60;99.90
32865;DHT22;19219;44.500;11.188;2022-11-14T10:11:38;16.70;99.90
32865;DHT22;19219;44.500;11.188;2022-11-14T10:17:03;15.70;99.90
32865;DHT22;19219;44.500;11.188;2022-11-14T10:19:44;15.50;99.90
32865;DHT22;19219;44.500;11.188;2022-11-14T10:25:44;15.30;99.90
32865;DHT22;19219;44.500;11.188;2022-11-14T10:36:12;15.50;99.90
32865;DHT22;19219;44.500;11.188;2022-11-14T10:41:26;15.40;99.90
32865;DHT22;19219;44.500;11.188;2022-11-14T10:43:53;15.40;99.90
32865;DHT22;19219;44.500;11.188;2022-11-14T10:46:26;15.40;99.90
32865;DHT22;19219;44.500;11.188;2022-11-14T10:48:53;15.20;99.90
32865;DHT22;19219;44.500;11.188;2022-11-14T10:51:42;15.20;99.90
32865;DHT22;19219;44.500;11.188;2022-11-14T10:54:21;15.20;99.90
32865;DHT22;19219;44.500;11.188;2022-11-14T10:56:47;15.00;99.90
32865;DHT22;19219;44.500;11.188;2022-11-14T10:59:14;14.90;99.90
32865;DHT22;19219;44.500;11.188;2022-11-14T11:01:44;15.00;99.90
32865;DHT22;19219;44.500;11.188;2022-11-14T11:04:33;14.90;99.90
32865;DHT22;19219;44.500;11.188;2022-11-14T11:09:37;14.80;99.90
32865;DHT22;19219;44.500;11.188;2022-11-14T11:15:09;14.80;99.90
32865;DHT22;19219;44.500;11.188;2022-11-14T11:17:57;14.90;99.90
32865;DHT22;19219;44.500;11.188;2022-11-14T11:20:40;14.90;99.90
32865;DHT22;19219;44.500;11.188;2022-11-14T11:25:42;14.80;99.90
32865;DHT22;19219;44.500;11.188;2022-11-14T11:28:19;14.80;99.90
32865;DHT22;19219;44.500;11.188;2022-11-14T11:30:55;14.80;99.90
32865;DHT22;19219;44.500;11.188;2022-11-14T11:35:53;14.80;99.90
32865;DHT22;19219;44.500;11.188;2022-11-14T11:38:21;14.80;99.90
32865;DHT22;19219;44.500;11.188;2022-11-14T11:40:53;14.90;99.90
32865;DHT22;19219;44.500;11.188;2022-11-14T11:45:52;14.80;99.90
32865;DHT22;19219;44.500;11.188;2022-11-14T11:48:21;14.70;99.90
32865;DHT22;19219;44.500;11.188;2022-11-14T11:50:48;14.70;99.90
32865;DHT22;19219;44.500;11.188;2022-11-14T11:53:24;14.60;99.90
32865;DHT22;19219;44.500;11.188;2022-11-14T11:55:58;14.50;99.90
32865;DHT22;19219;44.500;11.188;2022-11-14T11:58:48;14.60;99.90
32865;DHT22;19219;44.500;11.188;2022-11-14T12:01:15;14.60;99.90
32865;DHT22;19219;44.500;11.188;2022-11-14T12:03:53;14.60;99.90
32865;DHT22;19219;44.500;11.188;2022-11-14T12:06:21;14.70;99.90
32865;DHT22;19219;44.500;11.188;2022-11-14T12:09:14;14.70;99.90
32865;DHT22;19219;44.500;11.188;2022-11-14T12:11:44;14.80;99.90
32865;DHT22;19219;44.500;11.188;2022-11-14T12:17:02;14.70;99.90
32865;DHT22;19219;44.500;11.188;2022-11-14T12:30:40;14.60;99.90
32865;DHT22;19219;44.500;11.188;2022-11-14T12:33:31;14.60;99.90
32865;DHT22;19219;44.500;11.188;2022-11-14T12:36:01;14.60;99.90
32865;DHT22;19219;44.500;11.188;2022-11-14T12:38:49;14.50;99.90
32865;DHT22;19219;44.500;11.188;2022-11-14T12:41:43;14.50;99.90
32865;DHT22;19219;44.500;11.188;2022-11-14T12:50:02;14.50;99.90
32865;DHT22;19219;44.500;11.188;2022-11-14T13:00:33;14.40;99.90
32865;DHT22;19219;44.500;11.188;2022-11-14T13:06:08;14.50;99.90
32865;DHT22;19219;44.500;11.188;2022-11-14T13:08:45;14.50;99.90
32865;DHT22;19219;44.500;11.188;2022-11-14T13:11:34;14.50;99.90
32865;DHT22;19219;44.500;11.188;2022-11-14T13:14:19;14.60;99.90
32865;DHT22;19219;44.500;11.188;2022-11-14T13:19:56;14.70;99.90
32865;DHT22;19219;44.500;11.188;2022-11-14T13:22:41;14.70;99.90
32865;DHT22;19219;44.500;11.188;2022-11-14T13:27:34;14.70;99.90
32865;DHT22;19219;44.500;11.188;2022-11-14T13:30:02;14.80;99.90
32865;DHT22;19219;44.500;11.188;2022-11-14T13:35:14;14.90;99.90
32865;DHT22;19219;44.500;11.188;2022-11-14T13:40:15;15.30;99.90
32865;DHT22;19219;44.500;11.188;2022-11-14T13:43:13;15.40;99.90
32865;DHT22;19219;44.500;11.188;2022-11-14T13:48:40;15.60;99.90
32865;DHT22;19219;44.500;11.188;2022-11-14T13:51:10;15.60;99.90
32865;DHT22;19219;44.500;11.188;2022-11-14T13:53:40;15.60;99.90
32865;DHT22;19219;44.500;11.188;2022-11-14T13:56:29;15.60;99.90
32865;DHT22;19219;44.500;11.188;2022-11-14T14:04:39;15.40;99.90
32865;DHT22;19219;44.500;11.188;2022-11-14T14:07:31;15.30;99.90
32865;DHT22;19219;44.500;11.188;2022-11-14T14:12:45;15.10;99.90
32865;DHT22;19219;44.500;11.188;2022-11-14T14:15:20;15.10;99.90
32865;DHT22;19219;44.500;11.188;2022-11-14T14:20:46;15.00;99.90
32865;DHT22;19219;44.500;11.188;2022-11-14T14:23:34;14.80;99.90
32865;DHT22;19219;44.500;11.188;2022-11-14T14:26:33;14.80;99.90
32865;DHT22;19219;44.500;11.188;2022-11-14T14:32:15;14.80;99.90
32865;DHT22;19219;44.500;11.188;2022-11-14T14:34:41;14.80;99.90
32865;DHT22;19219;44.500;11.188;2022-11-14T14:37:24;14.80;99.90
32865;DHT22;19219;44.500;11.188;2022-11-14T14:39:55;14.70;99.90
32865;DHT22;19219;44.500;11.188;2022-11-14T14:42:22;14.70;99.90
32865;DHT22;19219;44.500;11.188;2022-11-14T14:44:48;14.60;99.90
32865;DHT22;19219;44.500;11.188;2022-11-14T14:47:33;14.50;99.90
32865;DHT22;19219;44.500;11.188;2022-11-14T14:50:05;14.50;99.90
32865;DHT22;19219;44.500;11.188;2022-11-14T14:52:34;14.50;99.90
32865;DHT22;19219;44.500;11.188;2022-11-14T14:55:05;14.60;99.90
32865;DHT22;19219;44.500;11.188;2022-11-14T14:57:33;14.50;99.90
32865;DHT22;19219;44.500;11.188;2022-11-14T15:00:04;14.40;99.90
32865;DHT22;19219;44.500;11.188;2022-11-14T15:02:30;14.40;99.90
32865;DHT22;19219;44.500;11.188;2022-11-14T15:04:57;14.40;99.90
32865;DHT22;19219;44.500;11.188;2022-11-14T15:07:25;14.30;99.90
32865;DHT22;19219;44.500;11.188;2022-11-14T15:09:59;14.30;99.90
32865;DHT22;19219;44.500;11.188;2022-11-14T15:12:26;14.20;99.90
32865;DHT22;19219;44.500;11.188;2022-11-14T15:14:53;14.10;99.90
32865;DHT22;19219;44.500;11.188;2022-11-14T15:17:21;14.10;99.90
32865;DHT22;19219;44.500;11.188;2022-11-14T15:19:49;14.00;99.90
32865;DHT22;19219;44.500;11.188;2022-11-14T15:27:46;13.80;99.90
32865;DHT22;19219;44.500;11.188;2022-11-14T15:30:27;13.70;99.90
32865;DHT22;19219;44.500;11.188;2022-11-14T15:33:00;13.70;99.90
32865;DHT22;19219;44.500;11.188;2022-11-14T15:35:27;13.60;99.90
32865;DHT22;19219;44.500;11.188;2022-11-14T15:40:33;13.50;99.90
32865;DHT22;19219;44.500;11.188;2022-11-14T15:46:36;13.30;99.90
32865;DHT22;19219;44.500;11.188;2022-11-14T15:49:08;13.20;99.90
32865;DHT22;19219;44.500;11.188;2022-11-14T15:51:54;13.10;99.90
32865;DHT22;19219;44.500;11.188;2022-11-14T15:54:26;13.00;99.90
32865;DHT22;19219;44.500;11.188;2022-11-14T15:56:54;12.90;99.90
32865;DHT22;19219;44.500;11.188;2022-11-14T15:59:21;12.80;99.90
32865;DHT22;19219;44.500;11.188;2022-11-14T16:01:50;12.80;99.90
32865;DHT22;19219;44.500;11.188;2022-11-14T16:04:19;12.70;99.90
32865;DHT22;19219;44.500;11.188;2022-11-14T16:06:45;12.60;99.90
32865;DHT22;19219;44.500;11.188;2022-11-14T16:09:19;12.50;99.90
32865;DHT22;19219;44.500;11.188;2022-11-14T16:11:45;12.30;99.90
32865;DHT22;19219;44.500;11.188;2022-11-14T16:14:12;12.20;99.90
32865;DHT22;19219;44.500;11.188;2022-11-14T16:16:37;12.20;99.90
32865;DHT22;19219;44.500;11.188;2022-11-14T16:19:04;12.00;99.90
32865;DHT22;19219;44.500;11.188;2022-11-14T16:21:30;12.00;99.90
32865;DHT22;19219;44.500;11.188;2022-11-14T16:23:55;11.90;99.90
32865;DHT22;19219;44.500;11.188;2022-11-14T16:26:22;11.90;99.90
32865;DHT22;19219;44.500;11.188;2022-11-14T16:28:50;11.80;99.90
32865;DHT22;19219;44.500;11.188;2022-11-14T16:31:16;11.70;99.90
32865;DHT22;19219;44.500;11.188;2022-11-14T16:33:42;11.50;99.90
32865;DHT22;19219;44.500;11.188;2022-11-14T16:36:10;11.50;99.90
32865;DHT22;19219;44.500;11.188;2022-11-14T16:38:36;11.30;99.90
32865;DHT22;19219;44.500;11.188;2022-11-14T16:41:12;11.10;99.90
32865;DHT22;19219;44.500;11.188;2022-11-14T16:43:39;11.00;99.90
32865;DHT22;19219;44.500;11.188;2022-11-14T16:46:05;10.90;99.90
32865;DHT22;19219;44.500;11.188;2022-11-14T16:48:31;10.90;99.90
32865;DHT22;19219;44.500;11.188;2022-11-14T16:51:02;10.70;99.90
32865;DHT22;19219;44.500;11.188;2022-11-14T16:53:28;10.60;99.90
32865;DHT22;19219;44.500;11.188;2022-11-14T16:55:55;10.60;99.90
32865;DHT22;19219;44.500;11.188;2022-11-14T16:58:21;10.50;99.90
32865;DHT22;19219;44.500;11.188;2022-11-14T17:00:47;10.50;99.90
32865;DHT22;19219;44.500;11.188;2022-11-14T17:03:13;10.40;99.90
32865;DHT22;19219;44.500;11.188;2022-11-14T17:08:08;10.40;99.90
32865;DHT22;19219;44.500;11.188;2022-11-14T17:10:42;10.20;99.90
32865;DHT22;19219;44.500;11.188;2022-11-14T17:13:09;10.10;99.90
32865;DHT22;19219;44.500;11.188;2022-11-14T17:15:35;10.10;99.90
32865;DHT22;19219;44.500;11.188;2022-11-14T17:18:02;10.10;99.90
32865;DHT22;19219;44.500;11.188;2022-11-14T17:20:28;10.10;99.90
32865;DHT22;19219;44.500;11.188;2022-11-14T17:22:54;10.10;99.90
32865;DHT22;19219;44.500;11.188;2022-11-14T17:25:20;10.00;99.90
32865;DHT22;19219;44.500;11.188;2022-11-14T17:27:46;10.00;99.90